createdAt,value
2022-10-07T00:01:02.761Z,101461.78
2022-10-07T00:03:30.220Z,101456.75
2022-10-07T00:06:23.258Z,101453.69
2022-10-07T00:08:52.713Z,101457.09
2022-10-07T00:11:22.769Z,101454.25
2022-10-07T00:13:53.287Z,101456.13
2022-10-07T00:16:26.625Z,101446.28
2022-10-07T00:18:54.899Z,101444.56
2022-10-07T00:21:22.151Z,101442.72
2022-10-07T00:23:49.479Z,101449.34
2022-10-07T00:26:23.280Z,101450.31
2022-10-07T00:28:51.165Z,101452.41
2022-10-07T00:31:21.962Z,101451.09
2022-10-07T00:33:51.104Z,101456.84
2022-10-07T00:36:20.881Z,101446.75
2022-10-07T00:38:52.554Z,101446.22
2022-10-07T00:41:24.015Z,101448.00
2022-10-07T00:43:51.406Z,101444.38
2022-10-07T00:46:31.026Z,101439.53
2022-10-07T00:49:06.384Z,101438.63
2022-10-07T00:51:35.454Z,101434.13
2022-10-07T00:54:07.461Z,101442.69
2022-10-07T00:56:34.852Z,101435.38
2022-10-07T00:59:02.373Z,101431.16
2022-10-07T01:01:29.685Z,101432.31
2022-10-07T01:03:57.632Z,101436.78
2022-10-07T01:06:25.370Z,101426.63
2022-10-07T01:08:54.469Z,101438.28
2022-10-07T01:11:34.094Z,101440.56
2022-10-07T01:14:07.467Z,101440.94
2022-10-07T01:16:43.205Z,101441.56
2022-10-07T01:19:29.152Z,101438.28
2022-10-07T01:22:12.523Z,101444.94
2022-10-07T01:24:49.847Z,101441.47
2022-10-07T01:27:21.169Z,101439.25
2022-10-07T01:30:01.797Z,101441.16
2022-10-07T01:32:40.545Z,101435.81
2022-10-07T01:35:13.792Z,101431.59
2022-10-07T01:37:46.743Z,101423.72
2022-10-07T01:40:19.574Z,101432.09
2022-10-07T01:42:48.449Z,101435.44
2022-10-07T01:45:18.641Z,101430.47
2022-10-07T01:47:46.304Z,101425.59
2022-10-07T01:50:16.203Z,101427.56
2022-10-07T01:52:58.367Z,101427.91
2022-10-07T01:55:42.780Z,101428.38
2022-10-07T01:58:15.710Z,101430.38
2022-10-07T02:00:47.836Z,101431.66
2022-10-07T02:03:28.923Z,101430.63
2022-10-07T02:06:20.028Z,101437.84
2022-10-07T02:08:54.289Z,101433.22
2022-10-07T02:11:32.220Z,101435.31
2022-10-07T02:14:18.663Z,101429.03
2022-10-07T02:16:48.091Z,101432.28
2022-10-07T02:19:23.088Z,101431.50
2022-10-07T02:21:53.035Z,101432.53
2022-10-07T02:24:23.126Z,101441.34
2022-10-07T02:26:53.955Z,101450.16
2022-10-07T02:29:23.904Z,101441.56
2022-10-07T02:31:52.680Z,101441.09
2022-10-07T02:34:23.149Z,101442.97
2022-10-07T02:37:02.549Z,101433.22
2022-10-07T02:39:30.000Z,101435.19
2022-10-07T02:42:38.759Z,101435.66
2022-10-07T02:45:15.993Z,101438.22
2022-10-07T02:47:52.500Z,101445.06
2022-10-07T02:50:25.339Z,101445.16
2022-10-07T02:52:55.615Z,101451.78
2022-10-07T02:55:26.895Z,101456.56
2022-10-07T02:57:58.987Z,101459.91
2022-10-07T03:00:29.165Z,101457.94
2022-10-07T03:02:58.918Z,101459.34
2022-10-07T03:05:26.279Z,101468.03
2022-10-07T03:08:00.209Z,101463.66
2022-10-07T03:10:27.588Z,101469.41
2022-10-07T03:12:55.458Z,101475.69
2022-10-07T03:15:23.722Z,101482.06
2022-10-07T03:17:51.338Z,101479.28
2022-10-07T03:20:24.077Z,101480.81
2022-10-07T03:22:56.316Z,101473.34
2022-10-07T03:25:24.782Z,101485.66
2022-10-07T03:27:58.249Z,101475.81
2022-10-07T03:30:26.943Z,101488.25
2022-10-07T03:32:54.545Z,101485.94
2022-10-07T03:35:21.879Z,101493.00
2022-10-07T03:37:49.272Z,101484.50
2022-10-07T03:40:17.478Z,101485.94
2022-10-07T03:42:44.786Z,101481.22
2022-10-07T03:45:12.069Z,101481.59
2022-10-07T03:47:39.295Z,101486.81
2022-10-07T03:50:07.042Z,101482.69
2022-10-07T03:52:35.587Z,101476.09
2022-10-07T03:55:06.020Z,101484.13
2022-10-07T03:57:33.298Z,101479.06
2022-10-07T04:00:00.561Z,101487.38
2022-10-07T04:02:27.833Z,101479.19
2022-10-07T04:04:55.151Z,101483.25
2022-10-07T04:07:23.074Z,101482.09
2022-10-07T04:09:51.238Z,101476.44
2022-10-07T04:12:18.981Z,101476.50
2022-10-07T04:14:46.808Z,101478.25
2022-10-07T04:17:17.210Z,101474.97
2022-10-07T04:19:45.570Z,101486.09
2022-10-07T04:22:13.340Z,101488.00
2022-10-07T04:24:41.481Z,101487.38
2022-10-07T04:27:09.950Z,101487.91
2022-10-07T04:29:39.207Z,101481.09
2022-10-07T04:32:06.744Z,101493.56
2022-10-07T04:34:34.604Z,101492.53
2022-10-07T04:37:01.919Z,101489.25
2022-10-07T04:39:56.207Z,101488.16
2022-10-07T04:42:16.499Z,101496.53
2022-10-07T04:44:43.703Z,101495.69
2022-10-07T04:47:11.121Z,101499.59
2022-10-07T04:49:38.402Z,101506.25
2022-10-07T04:52:05.674Z,101495.59
2022-10-07T04:54:33.021Z,101497.31
2022-10-07T04:57:00.423Z,101498.91
2022-10-07T04:59:29.971Z,101502.47
2022-10-07T05:01:58.117Z,101511.59
2022-10-07T05:04:25.982Z,101508.28
2022-10-07T05:06:53.452Z,101504.06
2022-10-07T05:09:20.874Z,101508.50
2022-10-07T05:11:48.404Z,101511.34
2022-10-07T05:14:15.640Z,101514.22
2022-10-07T05:16:42.978Z,101515.72
2022-10-07T05:19:10.254Z,101508.78
2022-10-07T05:21:37.741Z,101513.47
2022-10-07T05:24:05.196Z,101524.91
2022-10-07T05:26:32.584Z,101520.91
2022-10-07T05:29:00.317Z,101528.84
2022-10-07T05:31:27.621Z,101527.47
2022-10-07T05:33:55.026Z,101533.56
2022-10-07T05:36:22.391Z,101535.09
2022-10-07T05:38:49.757Z,101537.09
2022-10-07T05:41:17.082Z,101533.38
2022-10-07T05:43:44.470Z,101535.00
2022-10-07T05:46:14.133Z,101537.91
2022-10-07T05:48:46.168Z,101534.78
2022-10-07T05:51:14.369Z,101534.41
2022-10-07T05:53:41.616Z,101546.38
2022-10-07T05:56:11.444Z,101544.28
2022-10-07T05:58:39.354Z,101543.22
2022-10-07T06:01:13.676Z,101549.97
2022-10-07T06:03:49.676Z,101552.84
2022-10-07T06:06:17.201Z,101554.50
2022-10-07T06:08:45.794Z,101554.63
2022-10-07T06:11:15.159Z,101559.84
2022-10-07T06:13:42.384Z,101561.31
2022-10-07T06:16:10.205Z,101569.50
2022-10-07T06:18:38.074Z,101564.59
2022-10-07T06:21:06.056Z,101556.94
2022-10-07T06:23:34.133Z,101557.66
2022-10-07T06:26:04.207Z,101563.72
2022-10-07T06:28:39.206Z,101564.97
2022-10-07T06:31:09.261Z,101573.91
2022-10-07T06:33:39.708Z,101578.50
2022-10-07T06:36:15.861Z,101581.56
2022-10-07T06:38:52.427Z,101582.84
2022-10-07T06:41:20.497Z,101586.50
2022-10-07T06:43:48.167Z,101590.78
2022-10-07T06:46:18.428Z,101591.69
2022-10-07T06:48:46.151Z,101585.75
2022-10-07T06:51:20.801Z,101588.25
2022-10-07T06:53:52.263Z,101591.81
2022-10-07T06:56:19.614Z,101584.66
2022-10-07T06:58:47.506Z,101585.06
2022-10-07T07:01:14.857Z,101589.69
2022-10-07T07:03:42.321Z,101591.06
2022-10-07T07:06:10.163Z,101587.41
2022-10-07T07:08:37.943Z,101596.66
2022-10-07T07:11:08.117Z,101592.13
2022-10-07T07:13:35.411Z,101585.38
2022-10-07T07:16:02.814Z,101594.84
2022-10-07T07:18:30.073Z,101591.59
2022-10-07T07:21:02.464Z,101592.34
2022-10-07T07:23:29.841Z,101589.25
2022-10-07T07:25:57.537Z,101591.19
2022-10-07T07:28:24.968Z,101584.31
2022-10-07T07:30:52.491Z,101586.06
2022-10-07T07:33:19.918Z,101580.00
2022-10-07T07:35:47.335Z,101578.66
2022-10-07T07:38:14.667Z,101581.13
2022-10-07T07:40:42.012Z,101580.06
2022-10-07T07:43:09.280Z,101577.91
2022-10-07T07:45:37.208Z,101584.47
2022-10-07T07:48:05.143Z,101579.50
2022-10-07T07:50:32.535Z,101578.50
2022-10-07T07:52:59.774Z,101583.44
2022-10-07T07:55:27.377Z,101581.91
2022-10-07T07:57:54.703Z,101576.59
2022-10-07T08:00:21.937Z,101576.94
2022-10-07T08:02:49.503Z,101573.75
2022-10-07T08:05:22.871Z,101567.38
2022-10-07T08:07:51.062Z,101566.88
2022-10-07T08:10:18.471Z,101560.47
2022-10-07T08:12:45.781Z,101559.97
2022-10-07T08:15:13.167Z,101567.53
2022-10-07T08:17:40.717Z,101558.09
2022-10-07T08:20:08.206Z,101558.63
2022-10-07T08:22:35.499Z,101555.91
2022-10-07T08:25:03.563Z,101550.81
2022-10-07T08:27:31.048Z,101544.03
2022-10-07T08:29:58.312Z,101545.66
2022-10-07T08:32:25.593Z,101548.31
2022-10-07T08:34:53.036Z,101544.50
2022-10-07T08:37:20.557Z,101539.06
2022-10-07T08:39:47.897Z,101536.59
2022-10-07T08:42:27.514Z,101539.94
2022-10-07T08:44:55.627Z,101530.31
2022-10-07T08:47:34.453Z,101537.25
2022-10-07T08:50:09.260Z,101537.94
2022-10-07T08:52:39.430Z,101533.28
2022-10-07T08:55:36.299Z,101540.22
2022-10-07T08:58:22.397Z,101534.84
2022-10-07T09:00:56.668Z,101532.31
2022-10-07T09:03:47.031Z,101531.41
2022-10-07T09:06:26.838Z,101528.28
2022-10-07T09:09:01.829Z,101523.09
2022-10-07T09:11:33.005Z,101521.50
2022-10-07T09:14:03.518Z,101517.22
2022-10-07T09:16:37.166Z,101513.16
2022-10-07T09:19:05.989Z,101513.31
2022-10-07T09:21:41.169Z,101505.47
2022-10-07T09:24:20.388Z,101505.69
2022-10-07T09:26:48.026Z,101506.97
2022-10-07T09:29:20.116Z,101497.47
2022-10-07T09:31:47.629Z,101493.22
2022-10-07T09:34:24.484Z,101494.84
2022-10-07T09:37:18.871Z,101490.78
2022-10-07T09:39:52.195Z,101486.75
2022-10-07T09:42:31.615Z,101484.47
2022-10-07T09:45:03.071Z,101484.75
2022-10-07T09:47:36.811Z,101478.19
2022-10-07T09:50:04.643Z,101483.28
2022-10-07T09:52:32.489Z,101466.16
2022-10-07T09:55:29.656Z,101471.19
2022-10-07T09:58:02.701Z,101467.94
2022-10-07T10:00:30.628Z,101466.19
2022-10-07T10:03:06.674Z,101460.56
2022-10-07T10:05:52.046Z,101453.94
2022-10-07T10:08:30.697Z,101454.97
2022-10-07T10:11:00.723Z,101451.97
2022-10-07T10:13:38.884Z,101457.78
2022-10-07T10:16:34.547Z,101451.03
2022-10-07T10:19:04.831Z,101441.47
2022-10-07T10:21:39.920Z,101438.03
2022-10-07T10:24:16.074Z,101423.94
2022-10-07T10:27:05.991Z,101430.19
2022-10-07T10:29:57.238Z,101432.47
2022-10-07T10:32:43.498Z,101429.16
2022-10-07T10:35:31.882Z,101424.03
2022-10-07T10:38:14.242Z,101416.41
2022-10-07T10:40:54.057Z,101421.88
2022-10-07T10:43:32.585Z,101414.25
2022-10-07T10:46:09.273Z,101410.31
2022-10-07T10:48:48.809Z,101404.75
2022-10-07T10:51:34.652Z,101393.28
2022-10-07T10:54:05.064Z,101397.88
2022-10-07T10:56:44.402Z,101392.66
2022-10-07T10:59:47.128Z,101388.38
2022-10-07T11:02:33.137Z,101371.53
2022-10-07T11:05:14.792Z,101369.75
2022-10-07T11:07:47.729Z,101376.78
2022-10-07T11:10:34.547Z,101369.47
2022-10-07T11:13:10.962Z,101366.19
2022-10-07T11:16:13.766Z,101364.75
2022-10-07T11:18:44.226Z,101364.34
2022-10-07T11:21:18.051Z,101360.88
2022-10-07T11:24:09.957Z,101354.97
2022-10-07T11:26:43.919Z,101348.22
2022-10-07T11:29:28.847Z,101343.88
2022-10-07T11:32:05.196Z,101349.66
2022-10-07T11:34:54.559Z,101339.34
2022-10-07T11:37:34.664Z,101340.38
2022-10-07T11:40:06.564Z,101331.56
2022-10-07T11:42:40.836Z,101329.16
2022-10-07T11:45:13.392Z,101320.41
2022-10-07T11:47:53.215Z,101318.03
2022-10-07T11:50:43.625Z,101315.09
2022-10-07T11:53:21.132Z,101307.09
2022-10-07T11:55:57.226Z,101300.88
2022-10-07T11:58:32.100Z,101296.97
2022-10-07T12:01:27.280Z,101303.28
2022-10-07T12:04:25.145Z,101301.88
2022-10-07T12:07:30.147Z,101294.97
2022-10-07T12:10:00.745Z,101290.00
2022-10-07T12:12:45.166Z,101290.28
2022-10-07T12:15:40.712Z,101283.53
2022-10-07T12:18:08.082Z,101284.19
2022-10-07T12:20:35.286Z,101283.72
2022-10-07T12:23:17.488Z,101276.03
2022-10-07T12:25:50.454Z,101273.47
2022-10-07T12:28:39.777Z,101279.53
2022-10-07T12:31:16.291Z,101278.75
2022-10-07T12:33:43.934Z,101272.44
2022-10-07T12:36:23.384Z,101263.47
2022-10-07T12:38:56.776Z,101268.13
2022-10-07T12:41:45.625Z,101270.53
2022-10-07T12:44:36.012Z,101261.19
2022-10-07T12:47:25.350Z,101262.50
2022-10-07T12:50:07.558Z,101250.53
2022-10-07T12:52:53.361Z,101239.91
2022-10-07T12:55:29.499Z,101249.50
2022-10-07T12:57:58.568Z,101249.38
2022-10-07T13:00:25.907Z,101245.69
2022-10-07T13:03:47.434Z,101238.44
2022-10-07T13:06:17.504Z,101239.03
2022-10-07T13:09:09.978Z,101238.56
2022-10-07T13:11:59.252Z,101244.53
2022-10-07T13:14:26.565Z,101250.53
2022-10-07T13:17:26.656Z,101240.91
2022-10-07T13:20:29.347Z,101236.53
2022-10-07T13:22:56.717Z,101233.53
2022-10-07T13:25:24.224Z,101228.38
2022-10-07T13:28:00.737Z,101221.72
2022-10-07T13:30:42.558Z,101219.38
2022-10-07T13:33:32.929Z,101221.16
2022-10-07T13:36:15.768Z,101215.78
2022-10-07T13:38:44.693Z,101208.59
2022-10-07T13:41:20.699Z,101209.38
2022-10-07T13:43:49.720Z,101209.00
2022-10-07T13:46:17.121Z,101204.13
2022-10-07T13:48:46.022Z,101210.81
2022-10-07T13:51:23.522Z,101197.28
2022-10-07T13:53:53.835Z,101200.44
2022-10-07T13:56:25.555Z,101201.22
2022-10-07T13:58:55.331Z,101196.31
2022-10-07T14:01:26.557Z,101195.78
2022-10-07T14:04:29.437Z,101188.16
2022-10-07T14:07:16.155Z,101182.06
2022-10-07T14:10:00.447Z,101182.84
2022-10-07T14:12:35.235Z,101179.91
2022-10-07T14:15:05.734Z,101187.66
2022-10-07T14:17:39.122Z,101181.22
2022-10-07T14:20:37.741Z,101183.41
2022-10-07T14:23:15.187Z,101180.00
2022-10-07T14:25:48.456Z,101172.78
2022-10-07T14:28:23.684Z,101170.81
2022-10-07T14:31:06.509Z,101173.72
2022-10-07T14:34:04.625Z,101176.75
2022-10-07T14:36:32.219Z,101169.94
2022-10-07T14:38:59.446Z,101167.75
2022-10-07T14:41:28.683Z,101171.56
2022-10-07T14:43:56.624Z,101169.34
2022-10-07T14:46:26.107Z,101159.09
2022-10-07T14:48:54.658Z,101163.94
2022-10-07T14:51:25.546Z,101151.91
2022-10-07T14:53:57.061Z,101157.72
2022-10-07T14:56:26.835Z,101159.53
2022-10-07T14:58:54.112Z,101162.56
2022-10-07T15:01:21.461Z,101157.75
2022-10-07T15:03:48.960Z,101160.34
2022-10-07T15:06:17.752Z,101156.53
2022-10-07T15:08:47.699Z,101155.66
2022-10-07T15:11:20.493Z,101146.50
2022-10-07T15:13:49.302Z,101148.53
2022-10-07T15:16:20.193Z,101153.09
2022-10-07T15:18:52.400Z,101149.06
2022-10-07T15:21:22.192Z,101150.31
2022-10-07T15:23:51.304Z,101148.47
2022-10-07T15:26:18.886Z,101150.56
2022-10-07T15:28:53.246Z,101156.59
2022-10-07T15:31:21.824Z,101156.66
2022-10-07T15:33:49.250Z,101154.94
2022-10-07T15:36:16.585Z,101149.25
2022-10-07T15:38:44.284Z,101151.66
2022-10-07T15:41:29.650Z,101155.69
2022-10-07T15:44:02.239Z,101146.94
2022-10-07T15:46:29.828Z,101157.69
2022-10-07T15:48:58.566Z,101158.66
2022-10-07T15:51:27.385Z,101152.66
2022-10-07T15:53:55.023Z,101157.94
2022-10-07T15:56:22.722Z,101156.63
2022-10-07T15:58:50.300Z,101153.50
2022-10-07T16:01:17.686Z,101156.06
2022-10-07T16:03:46.975Z,101159.75
2022-10-07T16:06:17.810Z,101157.16
2022-10-07T16:08:45.091Z,101154.28
2022-10-07T16:11:13.256Z,101153.75
2022-10-07T16:13:42.895Z,101158.16
2022-10-07T16:16:15.286Z,101159.56
2022-10-07T16:18:45.420Z,101158.97
2022-10-07T16:21:24.487Z,101167.25
2022-10-07T16:23:55.921Z,101171.16
2022-10-07T16:26:25.760Z,101173.50
2022-10-07T16:28:54.043Z,101168.91
2022-10-07T16:31:21.394Z,101170.00
2022-10-07T16:33:53.284Z,101169.28
2022-10-07T16:36:21.994Z,101167.00
2022-10-07T16:38:51.000Z,101173.56
2022-10-07T16:41:19.309Z,101172.50
2022-10-07T16:43:47.423Z,101176.91
2022-10-07T16:46:17.143Z,101178.59
2022-10-07T16:48:45.922Z,101188.41
2022-10-07T16:51:25.666Z,101185.03
2022-10-07T16:53:55.490Z,101188.34
2022-10-07T16:56:23.767Z,101191.25
2022-10-07T16:58:58.872Z,101188.78
2022-10-07T17:01:26.906Z,101185.84
2022-10-07T17:03:55.649Z,101190.22
2022-10-07T17:06:24.609Z,101195.03
2022-10-07T17:08:52.044Z,101190.25
2022-10-07T17:11:21.235Z,101194.28
2022-10-07T17:13:48.479Z,101195.63
2022-10-07T17:16:15.769Z,101196.75
2022-10-07T17:18:43.209Z,101198.94
2022-10-07T17:21:10.573Z,101195.75
2022-10-07T17:23:37.882Z,101192.19
2022-10-07T17:26:06.348Z,101207.31
2022-10-07T17:28:34.882Z,101204.94
2022-10-07T17:31:10.685Z,101200.94
2022-10-07T17:33:42.719Z,101208.72
2022-10-07T17:36:11.731Z,101205.53
2022-10-07T17:38:43.946Z,101207.56
2022-10-07T17:41:18.610Z,101202.75
2022-10-07T17:43:47.558Z,101208.22
2022-10-07T17:46:17.101Z,101203.63
2022-10-07T17:48:45.938Z,101203.16
2022-10-07T17:51:15.812Z,101207.56
2022-10-07T17:53:44.423Z,101208.88
2022-10-07T17:56:13.886Z,101208.06
2022-10-07T17:58:44.480Z,101205.84
2022-10-07T18:01:15.406Z,101208.06
2022-10-07T18:03:46.904Z,101211.88
2022-10-07T18:06:14.263Z,101209.63
2022-10-07T18:08:42.201Z,101210.22
2022-10-07T18:11:10.085Z,101208.66
2022-10-07T18:13:37.385Z,101208.66
2022-10-07T18:16:05.276Z,101213.56
2022-10-07T18:18:32.938Z,101214.59
2022-10-07T18:21:04.800Z,101207.84
2022-10-07T18:23:32.942Z,101208.66
2022-10-07T18:26:04.475Z,101207.09
2022-10-07T18:28:33.190Z,101207.84
2022-10-07T18:31:09.330Z,101213.47
2022-10-07T18:33:39.784Z,101209.47
2022-10-07T18:36:13.846Z,101219.50
2022-10-07T18:38:43.494Z,101216.25
2022-10-07T18:41:15.902Z,101219.69
2022-10-07T18:43:44.315Z,101220.91
2022-10-07T18:46:15.410Z,101217.66
2022-10-07T18:48:43.868Z,101215.09
2022-10-07T18:51:13.097Z,101213.94
2022-10-07T18:53:43.185Z,101214.53
2022-10-07T18:56:13.565Z,101215.13
2022-10-07T18:58:43.186Z,101214.16
2022-10-07T19:01:16.512Z,101212.81
2022-10-07T19:03:44.368Z,101214.91
2022-10-07T19:06:15.895Z,101222.09
2022-10-07T19:08:43.426Z,101212.34
2022-10-07T19:11:13.314Z,101209.69
2022-10-07T19:13:40.598Z,101213.53
2022-10-07T19:16:07.938Z,101213.47
2022-10-07T19:18:35.268Z,101219.94
2022-10-07T19:21:02.633Z,101221.78
2022-10-07T19:23:30.013Z,101222.03
2022-10-07T19:25:58.837Z,101218.53
2022-10-07T19:28:26.497Z,101219.94
2022-10-07T19:30:54.573Z,101225.06
2022-10-07T19:33:22.036Z,101233.41
2022-10-07T19:35:56.196Z,101240.44
2022-10-07T19:38:23.515Z,101241.84
2022-10-07T19:40:50.904Z,101238.88
2022-10-07T19:43:18.201Z,101235.63
2022-10-07T19:45:45.641Z,101237.25
2022-10-07T19:48:14.594Z,101242.09
2022-10-07T19:50:42.914Z,101228.06
2022-10-07T19:53:10.387Z,101230.56
2022-10-07T19:55:37.668Z,101223.56
2022-10-07T19:58:08.355Z,101232.34
2022-10-07T20:00:35.651Z,101232.09
2022-10-07T20:03:02.980Z,101227.16
2022-10-07T20:05:33.258Z,101229.25
2022-10-07T20:08:01.703Z,101227.66
2022-10-07T20:10:29.145Z,101236.66
2022-10-07T20:12:56.411Z,101225.03
2022-10-07T20:15:23.701Z,101228.28
2022-10-07T20:17:51.338Z,101227.47
2022-10-07T20:20:18.628Z,101224.00
2022-10-07T20:22:49.368Z,101216.69
2022-10-07T20:25:17.065Z,101212.41
2022-10-07T20:27:45.016Z,101219.69
2022-10-07T20:30:17.760Z,101219.09
2022-10-07T20:32:45.821Z,101221.31
2022-10-07T20:35:13.295Z,101226.22
2022-10-07T20:37:41.588Z,101223.56
2022-10-07T20:40:09.508Z,101221.41
2022-10-07T20:42:36.983Z,101214.94
2022-10-07T20:45:05.329Z,101208.47
2022-10-07T20:47:34.695Z,101206.09
2022-10-07T20:50:02.025Z,101207.97
2022-10-07T20:52:32.498Z,101197.78
2022-10-07T20:54:59.940Z,101202.66
2022-10-07T20:57:30.076Z,101211.56
2022-10-07T20:59:57.345Z,101205.94
2022-10-07T21:02:24.759Z,101204.59
2022-10-07T21:04:52.083Z,101207.06
2022-10-07T21:07:19.991Z,101201.19
2022-10-07T21:09:47.563Z,101195.28
2022-10-07T21:12:19.008Z,101199.09
2022-10-07T21:14:46.279Z,101199.59
2022-10-07T21:17:14.087Z,101202.31
2022-10-07T21:19:44.445Z,101200.94
2022-10-07T21:22:11.830Z,101194.78
2022-10-07T21:24:39.112Z,101199.09
2022-10-07T21:27:07.913Z,101200.69
2022-10-07T21:29:40.117Z,101197.19
2022-10-07T21:32:11.899Z,101193.41
2022-10-07T21:34:39.401Z,101195.84
2022-10-07T21:37:06.676Z,101182.41
2022-10-07T21:39:34.050Z,101188.84
2022-10-07T21:42:01.397Z,101178.59
2022-10-07T21:44:28.752Z,101185.34
2022-10-07T21:46:56.060Z,101181.28
2022-10-07T21:49:23.527Z,101165.44
2022-10-07T21:51:50.801Z,101172.41
2022-10-07T21:54:18.092Z,101170.81
2022-10-07T21:56:45.379Z,101161.91
2022-10-07T21:59:13.245Z,101164.09
2022-10-07T22:01:40.902Z,101166.25
2022-10-07T22:04:16.510Z,101163.28
2022-10-07T22:06:44.019Z,101160.06
2022-10-07T22:09:12.519Z,101151.50
2022-10-07T22:11:40.192Z,101153.38
2022-10-07T22:14:12.263Z,101151.22
2022-10-07T22:16:40.421Z,101147.19
2022-10-07T22:19:08.483Z,101143.41
2022-10-07T22:21:35.821Z,101148.50
2022-10-07T22:24:04.882Z,101155.56
2022-10-07T22:26:35.664Z,101147.75
2022-10-07T22:29:03.648Z,101147.22
2022-10-07T22:31:31.265Z,101153.97
2022-10-07T22:34:03.161Z,101141.09
2022-10-07T22:36:30.718Z,101141.59
2022-10-07T22:38:58.451Z,101132.22
2022-10-07T22:41:27.123Z,101129.22
2022-10-07T22:43:55.844Z,101122.25
2022-10-07T22:46:27.450Z,101117.97
2022-10-07T22:48:56.696Z,101129.81
2022-10-07T22:51:25.900Z,101120.16
2022-10-07T22:53:54.740Z,101119.09
2022-10-07T22:56:23.422Z,101120.44
2022-10-07T22:58:59.122Z,101119.91
2022-10-07T23:01:27.848Z,101118.56
2022-10-07T23:03:55.957Z,101118.28
2022-10-07T23:06:23.339Z,101113.47
2022-10-07T23:08:50.672Z,101116.44
2022-10-07T23:11:22.948Z,101116.19
2022-10-07T23:13:51.435Z,101105.69
2022-10-07T23:16:21.788Z,101109.47
2022-10-07T23:18:50.418Z,101104.09
2022-10-07T23:21:21.208Z,101100.59
2022-10-07T23:23:53.744Z,101098.19
2022-10-07T23:26:23.478Z,101100.06
2022-10-07T23:28:52.020Z,101097.09
2022-10-07T23:31:21.437Z,101100.84
2022-10-07T23:33:51.439Z,101101.94
2022-10-07T23:36:20.960Z,101097.94
2022-10-07T23:38:49.634Z,101103.56
2022-10-07T23:41:25.362Z,101096.84
2022-10-07T23:43:58.077Z,101091.19
2022-10-07T23:46:27.492Z,101093.34
2022-10-07T23:48:55.480Z,101091.72
2022-10-07T23:51:24.715Z,101086.91
2022-10-07T23:53:52.127Z,101083.41
2022-10-07T23:56:19.743Z,101080.47
2022-10-07T23:58:47.292Z,101082.06
